sensor_id;sensor_type;location;lat;lon;timestamp;P1;durP1;ratioP1;P2;durP2;ratioP2
77214;SDS011;66210;53.282;9.864;2023-12-20T00:01:06;4.07;;;1.17;;
77214;SDS011;66210;53.282;9.864;2023-12-20T00:03:33;9.45;;;1.77;;
77214;SDS011;66210;53.282;9.864;2023-12-20T00:06:08;7.28;;;1.50;;
77214;SDS011;66210;53.282;9.864;2023-12-20T00:08:35;17.08;;;2.10;;
77214;SDS011;66210;53.282;9.864;2023-12-20T00:11:02;5.55;;;1.60;;
77214;SDS011;66210;53.282;9.864;2023-12-20T00:13:29;8.23;;;1.67;;
77214;SDS011;66210;53.282;9.864;2023-12-20T00:15:56;5.07;;;1.48;;
77214;SDS011;66210;53.282;9.864;2023-12-20T00:18:23;8.55;;;1.85;;
77214;SDS011;66210;53.282;9.864;2023-12-20T00:20:50;8.35;;;1.80;;
77214;SDS011;66210;53.282;9.864;2023-12-20T00:23:17;4.00;;;1.70;;
77214;SDS011;66210;53.282;9.864;2023-12-20T00:25:43;3.50;;;1.25;;
77214;SDS011;66210;53.282;9.864;2023-12-20T00:28:10;8.18;;;1.92;;
77214;SDS011;66210;53.282;9.864;2023-12-20T00:30:37;10.75;;;1.80;;
77214;SDS011;66210;53.282;9.864;2023-12-20T00:33:04;4.65;;;1.10;;
77214;SDS011;66210;53.282;9.864;2023-12-20T00:35:31;4.00;;;1.45;;
77214;SDS011;66210;53.282;9.864;2023-12-20T00:37:58;6.65;;;1.20;;
77214;SDS011;66210;53.282;9.864;2023-12-20T00:40:25;6.35;;;1.70;;
77214;SDS011;66210;53.282;9.864;2023-12-20T00:42:52;13.40;;;1.95;;
77214;SDS011;66210;53.282;9.864;2023-12-20T00:45:19;6.80;;;1.75;;
77214;SDS011;66210;53.282;9.864;2023-12-20T00:47:46;6.85;;;1.45;;
77214;SDS011;66210;53.282;9.864;2023-12-20T00:50:13;5.93;;;1.45;;
77214;SDS011;66210;53.282;9.864;2023-12-20T00:52:40;3.85;;;1.13;;
77214;SDS011;66210;53.282;9.864;2023-12-20T00:55:07;5.60;;;1.30;;
77214;SDS011;66210;53.282;9.864;2023-12-20T00:57:34;7.13;;;1.30;;
77214;SDS011;66210;53.282;9.864;2023-12-20T01:00:01;9.35;;;1.42;;
77214;SDS011;66210;53.282;9.864;2023-12-20T01:02:29;14.93;;;1.52;;
77214;SDS011;66210;53.282;9.864;2023-12-20T01:04:56;7.60;;;1.45;;
77214;SDS011;66210;53.282;9.864;2023-12-20T01:07:22;14.63;;;2.03;;
77214;SDS011;66210;53.282;9.864;2023-12-20T01:09:49;15.23;;;2.63;;
77214;SDS011;66210;53.282;9.864;2023-12-20T01:12:16;15.02;;;2.10;;
77214;SDS011;66210;53.282;9.864;2023-12-20T01:14:43;10.15;;;1.70;;
77214;SDS011;66210;53.282;9.864;2023-12-20T01:17:09;13.27;;;2.22;;
77214;SDS011;66210;53.282;9.864;2023-12-20T01:19:36;12.07;;;1.50;;
77214;SDS011;66210;53.282;9.864;2023-12-20T01:22:04;5.88;;;1.45;;
77214;SDS011;66210;53.282;9.864;2023-12-20T01:24:30;6.65;;;1.55;;
77214;SDS011;66210;53.282;9.864;2023-12-20T01:26:57;9.50;;;1.63;;
77214;SDS011;66210;53.282;9.864;2023-12-20T01:29:24;12.38;;;1.75;;
77214;SDS011;66210;53.282;9.864;2023-12-20T01:31:50;7.10;;;1.95;;
77214;SDS011;66210;53.282;9.864;2023-12-20T01:34:17;13.27;;;1.98;;
77214;SDS011;66210;53.282;9.864;2023-12-20T01:36:45;7.80;;;1.52;;
77214;SDS011;66210;53.282;9.864;2023-12-20T01:39:11;6.43;;;1.50;;
77214;SDS011;66210;53.282;9.864;2023-12-20T01:41:53;13.30;;;1.63;;
77214;SDS011;66210;53.282;9.864;2023-12-20T01:44:20;6.90;;;1.70;;
77214;SDS011;66210;53.282;9.864;2023-12-20T01:46:47;8.13;;;1.58;;
77214;SDS011;66210;53.282;9.864;2023-12-20T01:49:14;11.85;;;2.00;;
77214;SDS011;66210;53.282;9.864;2023-12-20T01:51:41;11.18;;;1.83;;
77214;SDS011;66210;53.282;9.864;2023-12-20T01:54:09;10.88;;;2.05;;
77214;SDS011;66210;53.282;9.864;2023-12-20T01:56:36;7.00;;;1.70;;
77214;SDS011;66210;53.282;9.864;2023-12-20T01:59:03;8.10;;;1.55;;
77214;SDS011;66210;53.282;9.864;2023-12-20T02:01:30;9.05;;;1.92;;
77214;SDS011;66210;53.282;9.864;2023-12-20T02:03:58;7.30;;;1.83;;
77214;SDS011;66210;53.282;9.864;2023-12-20T02:06:27;7.60;;;2.00;;
77214;SDS011;66210;53.282;9.864;2023-12-20T02:08:57;8.20;;;1.73;;
77214;SDS011;66210;53.282;9.864;2023-12-20T02:11:25;7.85;;;1.60;;
77214;SDS011;66210;53.282;9.864;2023-12-20T02:13:53;6.57;;;1.75;;
77214;SDS011;66210;53.282;9.864;2023-12-20T02:16:20;8.82;;;1.95;;
77214;SDS011;66210;53.282;9.864;2023-12-20T02:18:48;9.50;;;2.08;;
77214;SDS011;66210;53.282;9.864;2023-12-20T02:21:15;13.80;;;2.25;;
77214;SDS011;66210;53.282;9.864;2023-12-20T02:23:42;8.77;;;2.40;;
77214;SDS011;66210;53.282;9.864;2023-12-20T02:26:08;15.00;;;2.83;;
77214;SDS011;66210;53.282;9.864;2023-12-20T02:28:35;10.75;;;2.00;;
77214;SDS011;66210;53.282;9.864;2023-12-20T02:31:02;12.90;;;2.47;;
77214;SDS011;66210;53.282;9.864;2023-12-20T02:33:29;7.22;;;2.47;;
77214;SDS011;66210;53.282;9.864;2023-12-20T02:35:56;12.45;;;2.95;;
77214;SDS011;66210;53.282;9.864;2023-12-20T02:38:23;12.30;;;2.47;;
77214;SDS011;66210;53.282;9.864;2023-12-20T02:40:50;14.35;;;1.92;;
77214;SDS011;66210;53.282;9.864;2023-12-20T02:43:16;12.32;;;2.10;;
77214;SDS011;66210;53.282;9.864;2023-12-20T02:45:43;7.45;;;2.50;;
77214;SDS011;66210;53.282;9.864;2023-12-20T02:48:10;6.68;;;2.10;;
77214;SDS011;66210;53.282;9.864;2023-12-20T02:50:37;11.13;;;2.45;;
77214;SDS011;66210;53.282;9.864;2023-12-20T02:53:04;13.38;;;2.75;;
77214;SDS011;66210;53.282;9.864;2023-12-20T02:55:30;11.60;;;2.28;;
77214;SDS011;66210;53.282;9.864;2023-12-20T02:57:57;6.55;;;2.40;;
77214;SDS011;66210;53.282;9.864;2023-12-20T03:00:24;11.73;;;2.10;;
77214;SDS011;66210;53.282;9.864;2023-12-20T03:02:51;10.65;;;2.63;;
77214;SDS011;66210;53.282;9.864;2023-12-20T03:05:18;16.05;;;2.30;;
77214;SDS011;66210;53.282;9.864;2023-12-20T03:07:45;10.95;;;1.92;;
77214;SDS011;66210;53.282;9.864;2023-12-20T03:10:12;13.95;;;2.03;;
77214;SDS011;66210;53.282;9.864;2023-12-20T03:12:49;12.85;;;2.00;;
77214;SDS011;66210;53.282;9.864;2023-12-20T03:15:16;13.18;;;2.03;;
77214;SDS011;66210;53.282;9.864;2023-12-20T03:17:43;11.95;;;2.15;;
77214;SDS011;66210;53.282;9.864;2023-12-20T03:20:11;9.00;;;2.00;;
77214;SDS011;66210;53.282;9.864;2023-12-20T03:22:38;10.45;;;1.95;;
77214;SDS011;66210;53.282;9.864;2023-12-20T03:25:04;9.00;;;1.85;;
77214;SDS011;66210;53.282;9.864;2023-12-20T03:27:31;11.18;;;2.13;;
77214;SDS011;66210;53.282;9.864;2023-12-20T03:29:58;16.42;;;2.22;;
77214;SDS011;66210;53.282;9.864;2023-12-20T03:32:25;9.07;;;1.80;;
77214;SDS011;66210;53.282;9.864;2023-12-20T03:34:52;8.07;;;1.90;;
77214;SDS011;66210;53.282;9.864;2023-12-20T03:37:19;6.32;;;1.65;;
77214;SDS011;66210;53.282;9.864;2023-12-20T03:39:46;10.23;;;2.13;;
77214;SDS011;66210;53.282;9.864;2023-12-20T03:42:13;5.47;;;1.75;;
77214;SDS011;66210;53.282;9.864;2023-12-20T03:44:39;5.65;;;2.28;;
77214;SDS011;66210;53.282;9.864;2023-12-20T03:47:07;20.33;;;2.30;;
77214;SDS011;66210;53.282;9.864;2023-12-20T03:49:34;10.85;;;1.92;;
77214;SDS011;66210;53.282;9.864;2023-12-20T03:52:03;6.05;;;1.70;;
77214;SDS011;66210;53.282;9.864;2023-12-20T03:54:31;8.95;;;1.85;;
77214;SDS011;66210;53.282;9.864;2023-12-20T03:56:58;9.48;;;1.85;;
77214;SDS011;66210;53.282;9.864;2023-12-20T03:59:24;10.18;;;2.03;;
77214;SDS011;66210;53.282;9.864;2023-12-20T04:01:51;7.32;;;1.60;;
77214;SDS011;66210;53.282;9.864;2023-12-20T04:04:18;8.48;;;2.08;;
77214;SDS011;66210;53.282;9.864;2023-12-20T04:06:45;8.43;;;1.65;;
77214;SDS011;66210;53.282;9.864;2023-12-20T04:09:12;9.60;;;1.95;;
77214;SDS011;66210;53.282;9.864;2023-12-20T04:11:39;11.80;;;2.13;;
77214;SDS011;66210;53.282;9.864;2023-12-20T04:14:06;8.02;;;1.90;;
77214;SDS011;66210;53.282;9.864;2023-12-20T04:16:34;5.55;;;1.70;;
77214;SDS011;66210;53.282;9.864;2023-12-20T04:19:01;19.52;;;2.60;;
77214;SDS011;66210;53.282;9.864;2023-12-20T04:21:29;10.40;;;1.80;;
77214;SDS011;66210;53.282;9.864;2023-12-20T04:23:56;14.07;;;2.17;;
77214;SDS011;66210;53.282;9.864;2023-12-20T04:26:23;5.50;;;1.70;;
77214;SDS011;66210;53.282;9.864;2023-12-20T04:28:50;7.32;;;2.03;;
77214;SDS011;66210;53.282;9.864;2023-12-20T04:31:20;11.32;;;2.50;;
77214;SDS011;66210;53.282;9.864;2023-12-20T04:33:47;11.80;;;2.05;;
77214;SDS011;66210;53.282;9.864;2023-12-20T04:36:14;8.82;;;2.50;;
77214;SDS011;66210;53.282;9.864;2023-12-20T04:38:41;12.55;;;2.60;;
77214;SDS011;66210;53.282;9.864;2023-12-20T04:41:07;5.60;;;2.08;;
77214;SDS011;66210;53.282;9.864;2023-12-20T04:43:34;11.20;;;2.38;;
77214;SDS011;66210;53.282;9.864;2023-12-20T04:46:01;8.23;;;2.40;;
77214;SDS011;66210;53.282;9.864;2023-12-20T04:48:28;12.00;;;2.63;;
77214;SDS011;66210;53.282;9.864;2023-12-20T04:50:55;9.52;;;2.70;;
77214;SDS011;66210;53.282;9.864;2023-12-20T04:53:21;4.93;;;2.08;;
77214;SDS011;66210;53.282;9.864;2023-12-20T04:55:49;10.80;;;2.30;;
77214;SDS011;66210;53.282;9.864;2023-12-20T04:58:16;8.38;;;2.13;;
77214;SDS011;66210;53.282;9.864;2023-12-20T05:00:43;11.55;;;2.20;;
77214;SDS011;66210;53.282;9.864;2023-12-20T05:03:10;10.07;;;2.78;;
77214;SDS011;66210;53.282;9.864;2023-12-20T05:05:36;16.85;;;2.92;;
77214;SDS011;66210;53.282;9.864;2023-12-20T05:08:04;13.90;;;2.90;;
77214;SDS011;66210;53.282;9.864;2023-12-20T05:10:31;17.35;;;2.72;;
77214;SDS011;66210;53.282;9.864;2023-12-20T05:12:58;11.40;;;2.85;;
77214;SDS011;66210;53.282;9.864;2023-12-20T05:15:25;16.45;;;2.60;;
77214;SDS011;66210;53.282;9.864;2023-12-20T05:17:51;15.35;;;2.90;;
77214;SDS011;66210;53.282;9.864;2023-12-20T05:20:18;11.80;;;2.33;;
77214;SDS011;66210;53.282;9.864;2023-12-20T05:22:45;11.55;;;2.60;;
77214;SDS011;66210;53.282;9.864;2023-12-20T05:25:12;11.40;;;3.17;;
77214;SDS011;66210;53.282;9.864;2023-12-20T05:27:39;11.30;;;3.03;;
77214;SDS011;66210;53.282;9.864;2023-12-20T05:30:06;8.00;;;2.42;;
77214;SDS011;66210;53.282;9.864;2023-12-20T05:32:33;8.30;;;3.55;;
77214;SDS011;66210;53.282;9.864;2023-12-20T05:35:00;17.80;;;3.67;;
77214;SDS011;66210;53.282;9.864;2023-12-20T05:37:27;4.35;;;2.45;;
77214;SDS011;66210;53.282;9.864;2023-12-20T05:39:54;6.43;;;2.40;;
77214;SDS011;66210;53.282;9.864;2023-12-20T05:42:20;11.63;;;2.78;;
77214;SDS011;66210;53.282;9.864;2023-12-20T05:44:47;12.15;;;3.35;;
77214;SDS011;66210;53.282;9.864;2023-12-20T05:47:16;10.30;;;3.08;;
77214;SDS011;66210;53.282;9.864;2023-12-20T05:49:43;10.50;;;2.90;;
77214;SDS011;66210;53.282;9.864;2023-12-20T05:52:10;18.73;;;3.55;;
77214;SDS011;66210;53.282;9.864;2023-12-20T05:54:37;12.23;;;3.40;;
77214;SDS011;66210;53.282;9.864;2023-12-20T05:57:04;13.93;;;3.53;;
77214;SDS011;66210;53.282;9.864;2023-12-20T05:59:31;10.43;;;3.55;;
77214;SDS011;66210;53.282;9.864;2023-12-20T06:01:57;11.82;;;3.65;;
77214;SDS011;66210;53.282;9.864;2023-12-20T06:04:24;14.15;;;2.92;;
77214;SDS011;66210;53.282;9.864;2023-12-20T06:06:51;17.42;;;3.67;;
77214;SDS011;66210;53.282;9.864;2023-12-20T06:09:18;17.67;;;3.95;;
77214;SDS011;66210;53.282;9.864;2023-12-20T06:11:45;11.18;;;3.75;;
77214;SDS011;66210;53.282;9.864;2023-12-20T06:14:12;12.15;;;3.28;;
77214;SDS011;66210;53.282;9.864;2023-12-20T06:16:39;13.10;;;4.20;;
77214;SDS011;66210;53.282;9.864;2023-12-20T06:19:06;16.73;;;3.92;;
77214;SDS011;66210;53.282;9.864;2023-12-20T06:21:34;15.93;;;3.50;;
77214;SDS011;66210;53.282;9.864;2023-12-20T06:24:03;17.85;;;3.70;;
77214;SDS011;66210;53.282;9.864;2023-12-20T06:26:30;9.18;;;3.45;;
77214;SDS011;66210;53.282;9.864;2023-12-20T06:28:57;8.32;;;2.83;;
77214;SDS011;66210;53.282;9.864;2023-12-20T06:31:24;11.25;;;3.42;;
77214;SDS011;66210;53.282;9.864;2023-12-20T06:33:50;10.82;;;3.10;;
77214;SDS011;66210;53.282;9.864;2023-12-20T06:36:24;18.83;;;4.63;;
77214;SDS011;66210;53.282;9.864;2023-12-20T06:38:51;17.17;;;4.00;;
77214;SDS011;66210;53.282;9.864;2023-12-20T06:41:18;9.90;;;3.22;;
77214;SDS011;66210;53.282;9.864;2023-12-20T06:43:45;17.33;;;4.63;;
77214;SDS011;66210;53.282;9.864;2023-12-20T06:46:16;14.50;;;3.67;;
77214;SDS011;66210;53.282;9.864;2023-12-20T06:48:43;20.45;;;4.35;;
77214;SDS011;66210;53.282;9.864;2023-12-20T06:51:12;11.02;;;3.50;;
77214;SDS011;66210;53.282;9.864;2023-12-20T06:53:42;15.88;;;3.83;;
77214;SDS011;66210;53.282;9.864;2023-12-20T06:56:10;10.50;;;3.80;;
77214;SDS011;66210;53.282;9.864;2023-12-20T06:58:43;14.30;;;3.40;;
77214;SDS011;66210;53.282;9.864;2023-12-20T07:01:11;16.60;;;3.38;;
77214;SDS011;66210;53.282;9.864;2023-12-20T07:03:38;16.00;;;3.65;;
77214;SDS011;66210;53.282;9.864;2023-12-20T07:06:06;10.48;;;3.15;;
77214;SDS011;66210;53.282;9.864;2023-12-20T07:08:33;20.52;;;4.25;;
77214;SDS011;66210;53.282;9.864;2023-12-20T07:11:00;9.63;;;2.92;;
77214;SDS011;66210;53.282;9.864;2023-12-20T07:13:27;20.35;;;3.55;;
77214;SDS011;66210;53.282;9.864;2023-12-20T07:15:54;13.63;;;3.10;;
77214;SDS011;66210;53.282;9.864;2023-12-20T07:18:20;17.98;;;3.78;;
77214;SDS011;66210;53.282;9.864;2023-12-20T07:20:47;8.57;;;3.05;;
77214;SDS011;66210;53.282;9.864;2023-12-20T07:23:14;13.23;;;3.00;;
77214;SDS011;66210;53.282;9.864;2023-12-20T07:25:41;19.27;;;3.20;;
77214;SDS011;66210;53.282;9.864;2023-12-20T07:28:08;18.70;;;3.15;;
77214;SDS011;66210;53.282;9.864;2023-12-20T07:30:35;17.73;;;2.83;;
77214;SDS011;66210;53.282;9.864;2023-12-20T07:33:02;13.30;;;2.88;;
77214;SDS011;66210;53.282;9.864;2023-12-20T07:35:29;15.52;;;2.83;;
77214;SDS011;66210;53.282;9.864;2023-12-20T07:37:56;16.05;;;2.90;;
77214;SDS011;66210;53.282;9.864;2023-12-20T07:40:23;15.25;;;3.55;;
77214;SDS011;66210;53.282;9.864;2023-12-20T07:42:50;16.88;;;3.80;;
77214;SDS011;66210;53.282;9.864;2023-12-20T07:45:17;13.00;;;3.08;;
77214;SDS011;66210;53.282;9.864;2023-12-20T07:47:44;15.43;;;3.10;;
77214;SDS011;66210;53.282;9.864;2023-12-20T07:50:11;14.77;;;3.15;;
77214;SDS011;66210;53.282;9.864;2023-12-20T07:52:44;12.98;;;3.00;;
77214;SDS011;66210;53.282;9.864;2023-12-20T07:55:12;17.92;;;3.00;;
77214;SDS011;66210;53.282;9.864;2023-12-20T07:57:39;15.18;;;2.65;;
77214;SDS011;66210;53.282;9.864;2023-12-20T08:00:06;21.92;;;4.18;;
77214;SDS011;66210;53.282;9.864;2023-12-20T08:02:33;19.75;;;3.55;;
77214;SDS011;66210;53.282;9.864;2023-12-20T08:05:00;13.57;;;2.78;;
77214;SDS011;66210;53.282;9.864;2023-12-20T08:07:27;13.10;;;2.97;;
77214;SDS011;66210;53.282;9.864;2023-12-20T08:09:55;14.30;;;3.22;;
77214;SDS011;66210;53.282;9.864;2023-12-20T08:12:23;16.63;;;2.97;;
77214;SDS011;66210;53.282;9.864;2023-12-20T08:14:50;16.20;;;2.70;;
77214;SDS011;66210;53.282;9.864;2023-12-20T08:17:17;14.60;;;3.85;;
77214;SDS011;66210;53.282;9.864;2023-12-20T08:19:48;15.35;;;2.83;;
77214;SDS011;66210;53.282;9.864;2023-12-20T08:22:16;15.05;;;2.97;;
77214;SDS011;66210;53.282;9.864;2023-12-20T08:24:44;22.88;;;4.00;;
77214;SDS011;66210;53.282;9.864;2023-12-20T08:27:11;27.35;;;4.13;;
77214;SDS011;66210;53.282;9.864;2023-12-20T08:29:37;11.52;;;2.80;;
77214;SDS011;66210;53.282;9.864;2023-12-20T08:32:04;15.93;;;3.70;;
77214;SDS011;66210;53.282;9.864;2023-12-20T08:34:31;18.00;;;3.88;;
77214;SDS011;66210;53.282;9.864;2023-12-20T08:36:58;16.92;;;3.25;;
77214;SDS011;66210;53.282;9.864;2023-12-20T08:39:25;15.80;;;2.53;;
77214;SDS011;66210;53.282;9.864;2023-12-20T08:41:52;25.08;;;3.75;;
77214;SDS011;66210;53.282;9.864;2023-12-20T08:44:19;15.30;;;3.42;;
77214;SDS011;66210;53.282;9.864;2023-12-20T08:46:46;13.20;;;2.88;;
77214;SDS011;66210;53.282;9.864;2023-12-20T08:49:14;16.73;;;2.72;;
77214;SDS011;66210;53.282;9.864;2023-12-20T08:51:41;9.48;;;2.80;;
77214;SDS011;66210;53.282;9.864;2023-12-20T08:54:08;12.38;;;2.70;;
77214;SDS011;66210;53.282;9.864;2023-12-20T08:56:35;14.77;;;3.40;;
77214;SDS011;66210;53.282;9.864;2023-12-20T08:59:03;10.52;;;2.70;;
77214;SDS011;66210;53.282;9.864;2023-12-20T09:01:30;14.15;;;2.50;;
77214;SDS011;66210;53.282;9.864;2023-12-20T09:03:57;21.50;;;3.80;;
77214;SDS011;66210;53.282;9.864;2023-12-20T09:06:24;13.68;;;2.28;;
77214;SDS011;66210;53.282;9.864;2023-12-20T09:08:51;10.85;;;3.53;;
77214;SDS011;66210;53.282;9.864;2023-12-20T09:11:18;13.68;;;2.97;;
77214;SDS011;66210;53.282;9.864;2023-12-20T09:13:45;15.63;;;2.65;;
77214;SDS011;66210;53.282;9.864;2023-12-20T09:16:12;12.25;;;2.70;;
77214;SDS011;66210;53.282;9.864;2023-12-20T09:18:40;16.02;;;2.38;;
77214;SDS011;66210;53.282;9.864;2023-12-20T09:21:07;8.88;;;2.67;;
77214;SDS011;66210;53.282;9.864;2023-12-20T09:23:33;16.60;;;2.90;;
77214;SDS011;66210;53.282;9.864;2023-12-20T09:26:00;13.80;;;3.05;;
77214;SDS011;66210;53.282;9.864;2023-12-20T09:28:27;13.88;;;2.92;;
77214;SDS011;66210;53.282;9.864;2023-12-20T09:30:54;17.08;;;3.20;;
77214;SDS011;66210;53.282;9.864;2023-12-20T09:33:21;12.57;;;2.85;;
77214;SDS011;66210;53.282;9.864;2023-12-20T09:35:48;9.10;;;2.58;;
77214;SDS011;66210;53.282;9.864;2023-12-20T09:38:15;10.88;;;1.92;;
77214;SDS011;66210;53.282;9.864;2023-12-20T09:40:43;12.20;;;2.35;;
77214;SDS011;66210;53.282;9.864;2023-12-20T09:43:11;7.55;;;3.25;;
77214;SDS011;66210;53.282;9.864;2023-12-20T09:45:41;8.48;;;1.85;;
77214;SDS011;66210;53.282;9.864;2023-12-20T09:48:12;6.25;;;1.75;;
77214;SDS011;66210;53.282;9.864;2023-12-20T09:50:41;1.88;;;0.93;;
77214;SDS011;66210;53.282;9.864;2023-12-20T09:53:12;4.20;;;0.80;;
77214;SDS011;66210;53.282;9.864;2023-12-20T09:55:41;4.75;;;1.00;;
77214;SDS011;66210;53.282;9.864;2023-12-20T09:58:08;3.45;;;1.02;;
77214;SDS011;66210;53.282;9.864;2023-12-20T10:00:35;4.30;;;1.10;;
77214;SDS011;66210;53.282;9.864;2023-12-20T10:03:02;5.93;;;1.05;;
77214;SDS011;66210;53.282;9.864;2023-12-20T10:08:00;2.58;;;1.30;;
77214;SDS011;66210;53.282;9.864;2023-12-20T10:10:28;1.50;;;0.80;;
77214;SDS011;66210;53.282;9.864;2023-12-20T10:13:11;0.68;;;0.68;;
77214;SDS011;66210;53.282;9.864;2023-12-20T10:15:39;0.60;;;0.60;;
77214;SDS011;66210;53.282;9.864;2023-12-20T10:18:07;2.65;;;0.80;;
77214;SDS011;66210;53.282;9.864;2023-12-20T10:20:34;0.73;;;0.45;;
77214;SDS011;66210;53.282;9.864;2023-12-20T10:23:02;2.63;;;0.90;;
77214;SDS011;66210;53.282;9.864;2023-12-20T10:25:29;3.33;;;1.08;;
77214;SDS011;66210;53.282;9.864;2023-12-20T10:28:15;2.25;;;1.33;;
77214;SDS011;66210;53.282;9.864;2023-12-20T10:30:47;2.40;;;0.80;;
77214;SDS011;66210;53.282;9.864;2023-12-20T10:33:22;1.30;;;0.80;;
77214;SDS011;66210;53.282;9.864;2023-12-20T10:35:51;2.53;;;0.75;;
77214;SDS011;66210;53.282;9.864;2023-12-20T10:38:19;2.28;;;0.57;;
77214;SDS011;66210;53.282;9.864;2023-12-20T10:40:46;1.98;;;0.70;;
77214;SDS011;66210;53.282;9.864;2023-12-20T10:43:13;1.85;;;0.80;;
77214;SDS011;66210;53.282;9.864;2023-12-20T10:45:42;5.20;;;1.10;;
77214;SDS011;66210;53.282;9.864;2023-12-20T10:48:11;1.60;;;0.73;;
77214;SDS011;66210;53.282;9.864;2023-12-20T10:50:39;1.88;;;0.90;;
77214;SDS011;66210;53.282;9.864;2023-12-20T10:53:07;4.63;;;0.93;;
77214;SDS011;66210;53.282;9.864;2023-12-20T10:55:34;1.65;;;1.08;;
77214;SDS011;66210;53.282;9.864;2023-12-20T10:58:01;4.15;;;1.17;;
77214;SDS011;66210;53.282;9.864;2023-12-20T11:00:33;4.13;;;0.90;;
77214;SDS011;66210;53.282;9.864;2023-12-20T11:03:08;4.28;;;1.15;;
77214;SDS011;66210;53.282;9.864;2023-12-20T11:08:32;5.72;;;1.10;;
77214;SDS011;66210;53.282;9.864;2023-12-20T11:11:17;6.07;;;1.48;;
77214;SDS011;66210;53.282;9.864;2023-12-20T11:13:58;9.63;;;1.50;;
77214;SDS011;66210;53.282;9.864;2023-12-20T11:16:29;2.20;;;1.10;;
77214;SDS011;66210;53.282;9.864;2023-12-20T11:19:14;8.93;;;1.15;;
77214;SDS011;66210;53.282;9.864;2023-12-20T11:21:41;2.10;;;1.38;;
77214;SDS011;66210;53.282;9.864;2023-12-20T11:24:07;4.15;;;1.30;;
77214;SDS011;66210;53.282;9.864;2023-12-20T11:26:36;6.32;;;1.30;;
77214;SDS011;66210;53.282;9.864;2023-12-20T11:32:27;7.28;;;1.20;;
77214;SDS011;66210;53.282;9.864;2023-12-20T11:34:58;2.72;;;1.20;;
77214;SDS011;66210;53.282;9.864;2023-12-20T11:37:29;8.25;;;1.70;;
77214;SDS011;66210;53.282;9.864;2023-12-20T11:40:01;8.60;;;1.23;;
77214;SDS011;66210;53.282;9.864;2023-12-20T11:45:04;7.05;;;1.42;;
77214;SDS011;66210;53.282;9.864;2023-12-20T11:47:33;6.38;;;1.42;;
77214;SDS011;66210;53.282;9.864;2023-12-20T11:50:01;6.25;;;1.13;;
77214;SDS011;66210;53.282;9.864;2023-12-20T11:52:30;6.88;;;1.52;;
77214;SDS011;66210;53.282;9.864;2023-12-20T11:54:57;6.43;;;1.20;;
77214;SDS011;66210;53.282;9.864;2023-12-20T11:57:24;9.98;;;1.80;;
77214;SDS011;66210;53.282;9.864;2023-12-20T11:59:54;6.63;;;1.75;;
77214;SDS011;66210;53.282;9.864;2023-12-20T12:02:21;7.28;;;1.45;;
77214;SDS011;66210;53.282;9.864;2023-12-20T12:04:50;3.40;;;1.20;;
77214;SDS011;66210;53.282;9.864;2023-12-20T12:07:20;8.27;;;1.35;;
77214;SDS011;66210;53.282;9.864;2023-12-20T12:09:48;16.95;;;1.70;;
77214;SDS011;66210;53.282;9.864;2023-12-20T12:12:15;8.55;;;1.60;;
77214;SDS011;66210;53.282;9.864;2023-12-20T12:14:42;6.72;;;1.30;;
77214;SDS011;66210;53.282;9.864;2023-12-20T12:17:12;5.40;;;1.70;;
77214;SDS011;66210;53.282;9.864;2023-12-20T12:19:40;6.60;;;1.38;;
77214;SDS011;66210;53.282;9.864;2023-12-20T12:22:08;6.03;;;1.20;;
77214;SDS011;66210;53.282;9.864;2023-12-20T12:24:41;6.40;;;1.33;;
77214;SDS011;66210;53.282;9.864;2023-12-20T12:27:09;10.60;;;1.38;;
77214;SDS011;66210;53.282;9.864;2023-12-20T12:29:37;4.20;;;1.00;;
77214;SDS011;66210;53.282;9.864;2023-12-20T12:32:04;3.05;;;0.90;;
77214;SDS011;66210;53.282;9.864;2023-12-20T12:34:35;8.18;;;1.30;;
77214;SDS011;66210;53.282;9.864;2023-12-20T12:37:06;5.38;;;1.95;;
77214;SDS011;66210;53.282;9.864;2023-12-20T12:39:33;2.90;;;1.10;;
77214;SDS011;66210;53.282;9.864;2023-12-20T12:42:00;1.58;;;0.80;;
77214;SDS011;66210;53.282;9.864;2023-12-20T12:44:27;1.63;;;0.85;;
77214;SDS011;66210;53.282;9.864;2023-12-20T12:46:54;0.93;;;0.80;;
77214;SDS011;66210;53.282;9.864;2023-12-20T12:49:21;3.47;;;0.80;;
77214;SDS011;66210;53.282;9.864;2023-12-20T12:51:51;2.03;;;0.73;;
77214;SDS011;66210;53.282;9.864;2023-12-20T12:54:19;5.32;;;1.02;;
77214;SDS011;66210;53.282;9.864;2023-12-20T12:56:47;5.15;;;1.20;;
77214;SDS011;66210;53.282;9.864;2023-12-20T12:59:14;5.55;;;1.60;;
77214;SDS011;66210;53.282;9.864;2023-12-20T13:01:40;9.65;;;1.67;;
77214;SDS011;66210;53.282;9.864;2023-12-20T13:04:08;6.93;;;2.13;;
77214;SDS011;66210;53.282;9.864;2023-12-20T13:06:37;5.32;;;1.27;;
77214;SDS011;66210;53.282;9.864;2023-12-20T13:09:05;10.48;;;1.73;;
77214;SDS011;66210;53.282;9.864;2023-12-20T13:11:32;8.93;;;1.80;;
77214;SDS011;66210;53.282;9.864;2023-12-20T13:14:01;12.80;;;2.13;;
77214;SDS011;66210;53.282;9.864;2023-12-20T13:16:27;13.13;;;1.92;;
77214;SDS011;66210;53.282;9.864;2023-12-20T13:18:54;13.10;;;1.73;;
77214;SDS011;66210;53.282;9.864;2023-12-20T13:21:21;6.15;;;1.92;;
77214;SDS011;66210;53.282;9.864;2023-12-20T13:23:47;10.80;;;1.60;;
77214;SDS011;66210;53.282;9.864;2023-12-20T13:26:14;8.70;;;1.40;;
77214;SDS011;66210;53.282;9.864;2023-12-20T13:28:40;11.27;;;2.38;;
77214;SDS011;66210;53.282;9.864;2023-12-20T13:31:07;10.60;;;2.35;;
77214;SDS011;66210;53.282;9.864;2023-12-20T13:33:34;6.75;;;1.75;;
77214;SDS011;66210;53.282;9.864;2023-12-20T13:36:01;16.15;;;2.17;;
77214;SDS011;66210;53.282;9.864;2023-12-20T13:38:32;10.07;;;2.38;;
77214;SDS011;66210;53.282;9.864;2023-12-20T13:40:59;10.68;;;2.00;;
77214;SDS011;66210;53.282;9.864;2023-12-20T13:43:25;10.30;;;2.22;;
77214;SDS011;66210;53.282;9.864;2023-12-20T13:45:52;16.90;;;2.80;;
77214;SDS011;66210;53.282;9.864;2023-12-20T13:48:20;14.88;;;2.17;;
77214;SDS011;66210;53.282;9.864;2023-12-20T13:50:46;11.20;;;2.28;;
77214;SDS011;66210;53.282;9.864;2023-12-20T13:53:13;12.52;;;2.30;;
77214;SDS011;66210;53.282;9.864;2023-12-20T13:55:41;16.60;;;2.17;;
77214;SDS011;66210;53.282;9.864;2023-12-20T13:58:07;18.17;;;3.42;;
77214;SDS011;66210;53.282;9.864;2023-12-20T14:00:36;12.73;;;2.85;;
77214;SDS011;66210;53.282;9.864;2023-12-20T14:03:06;8.60;;;2.15;;
77214;SDS011;66210;53.282;9.864;2023-12-20T14:05:33;9.60;;;2.20;;
77214;SDS011;66210;53.282;9.864;2023-12-20T14:08:00;12.95;;;2.17;;
77214;SDS011;66210;53.282;9.864;2023-12-20T14:10:27;22.33;;;2.90;;
77214;SDS011;66210;53.282;9.864;2023-12-20T14:12:54;12.18;;;2.25;;
77214;SDS011;66210;53.282;9.864;2023-12-20T14:15:21;22.35;;;2.80;;
77214;SDS011;66210;53.282;9.864;2023-12-20T14:17:47;22.60;;;2.75;;
77214;SDS011;66210;53.282;9.864;2023-12-20T14:20:14;13.85;;;3.15;;
77214;SDS011;66210;53.282;9.864;2023-12-20T14:22:42;10.73;;;2.63;;
77214;SDS011;66210;53.282;9.864;2023-12-20T14:25:13;8.75;;;2.20;;
77214;SDS011;66210;53.282;9.864;2023-12-20T14:27:40;15.30;;;2.58;;
77214;SDS011;66210;53.282;9.864;2023-12-20T14:30:11;20.35;;;3.05;;
77214;SDS011;66210;53.282;9.864;2023-12-20T14:32:40;14.75;;;2.83;;
77214;SDS011;66210;53.282;9.864;2023-12-20T14:35:06;16.02;;;2.20;;
77214;SDS011;66210;53.282;9.864;2023-12-20T14:37:35;9.45;;;2.38;;
77214;SDS011;66210;53.282;9.864;2023-12-20T14:40:06;15.25;;;2.67;;
77214;SDS011;66210;53.282;9.864;2023-12-20T14:42:33;12.95;;;2.40;;
77214;SDS011;66210;53.282;9.864;2023-12-20T14:44:59;12.07;;;2.35;;
77214;SDS011;66210;53.282;9.864;2023-12-20T14:47:26;13.13;;;2.55;;
77214;SDS011;66210;53.282;9.864;2023-12-20T14:49:53;14.18;;;2.35;;
77214;SDS011;66210;53.282;9.864;2023-12-20T14:52:19;14.70;;;2.30;;
77214;SDS011;66210;53.282;9.864;2023-12-20T14:54:46;11.10;;;2.10;;